AirNav   Pilot Hours Calculator
 
 699 users online  

7PA2 State Park Heliport
Wind Gap, Pennsylvania, USA

GOING TO WIND GAP?


FAA INFORMATION EFFECTIVE 07 NOVEMBER 2019

Location

FAA Identifier: 7PA2
Lat/Long: 40-48-13.8900N 075-17-49.1700W
40-48.231500N 075-17.819500W
40.8038583,-75.2969917
(estimated)
Elevation: 620 ft. / 189 m (estimated)
Variation: 12W (1995)
From city: 3 miles S of WIND GAP, PA
Time zone: UTC -5 (UTC -4 during Daylight Saving Time)
Zip code: 18091

Heliport Operations

Heliport use: Private use. Permission required prior to landing
Activation date: 07/1999
Control tower: no
ARTCC: NEW YORK CENTER
FSS: WILLIAMSPORT FLIGHT SERVICE STATION
Attendance: UNATNDD
Wind indicator: yes
Segmented circle: no

Heliport Communications

UNICOM: 123.05
WX ASOS at ABE (11 nm SW): PHONE 610-266-3579
WX AWOS-3 at XLL (16 nm SW): 127.875 (610-231-3111)

Nearby radio navigation aids

VOR radial/distance  VOR name  Freq  Var
FJCr067/8.5ALLENTOWN VORTAC117.5010W
BWZr282/21.6BROADWAY VOR/DME114.2011W
ETXr062/22.1EAST TEXAS VOR/DME110.2009W
STWr250/22.6STILLWATER VOR/DME109.6011W
SBJr308/28.5SOLBERG VOR/DME112.9010W
LVZr158/33.3WILKES-BARRE VORTAC111.6010W
PTWr028/36.9POTTSTOWN VORTAC116.5009W
ARDr342/37.5YARDLEY VOR/DME108.2010W
SAXr256/37.9SPARTA VORTAC115.7011W

 
NDB name  Hdg/Dist  Freq  Var  ID
CHATHAM288/39.625413WCAT -.-. .- -

Heliport Services

Runway Information

Helipad H1

Dimensions: 60 x 60 ft. / 18 x 18 m
Surface: turf, in good condition
Traffic pattern: leftleft

Heliport Ownership and Management from official FAA records

Ownership: Privately-owned
Owner: DONALD JAY SLEIGHT JR
982 STATE PARK RD
WIND GAP, PA 18091
Phone 610-863-7902
Manager: DONALD JAY SLEIGHT JR
982 STATE PARK RD
WIND GAP, PA 18091
Phone 610-863-7902

Heliport Operational Statistics

Aircraft based on the field: 2
Helicopters: 2
    

Additional Remarks

FOR CD CTC ALLENTOWN APCH AT 800-728-6322.

Instrument Procedures

There are no published instrument procedures at 7PA2.

Some nearby airports with instrument procedures:

N43 - Braden Airpark (4 nm SE)
KABE - Lehigh Valley International Airport (11 nm SW)
N53 - Stroudsburg-Pocono Airport (15 nm NE)
KXLL - Allentown Queen City Municipal Airport (16 nm SW)
1N7 - Blairstown Airport (17 nm NE)
N85 - Alexandria Airport (18 nm SE)
 
Loc | Ops | Rwys | IFR | FBO | Links
Com | Nav | Svcs | Stats | Notes
Area around 7PA2 (State Park Heliport)
 
Road maps at: MapQuest Bing Google
 
Aerial photo
No photo
 
Sectional chart

 
Airport distance calculator
Flying to State Park Heliport? Find the distance to fly.

From to 7PA2

Sunrise and sunset
Times for 15-Nov-2019
 Local
(UTC-5)
 Zulu
(UTC)
Morning civil twilight06:2011:20
Sunrise06:4911:49
Sunset16:4221:42
Evening civil twilight17:1222:12

Current date and time
Zulu (UTC)  16-Nov-2019 02:50:48
Local (UTC-5)  15-Nov-2019 21:50:48
 
METAR
KABE 
12nm SW 
160151Z 34009KT 10SM CLR 02/M05 A3024 RMK AO2 SLP243 T00221050
KXLL 
16nm SW 
160235Z AUTO 36007KT 10SM CLR 04/M01 A3026 RMK AO2
KMPO 
20nm N 
160153Z AUTO 30013G22KT 10SM OVC019 01/M03 A3017 RMK AO2 SLP238 T00061028
K22N 
21nm W 
160236Z AUTO 00000KT 10SM CLR M03/M04 A3027 RMK AO2
KUKT 
22nm S 
160235Z AUTO 35007KT 310V020 10SM CLR 04/M04 A3024 RMK A01
TAF
KABE 
12nm SW 
151739Z 1518/1618 27007KT P6SM SCT250 FM152300 30005KT P6SM SCT250 FM160500 35007KT P6SM FEW250 FM160800 01008KT P6SM FEW200 FM161200 04008KT P6SM FEW250
NOTAMs
Click for the latest NOTAMs
NOTAMs are issued by the DoD/FAA and will open in a separate window not controlled by AirNav.

 

 
 

Would you like to see your business listed on this page?

 If your business provides an interesting product or service to pilots, flight crews, aircraft, or users of the State Park Heliport, you should consider listing it here.  To start the listing process, click on the button below
 
Add a business
 

Other Pages about State Park Heliport

Update a link
 
Copyright © AirNav, LLC. All rights reserved. Privacy Policy  Contact